createdAt,value
2023-04-04T00:00:44.698Z,0.57
2023-04-04T00:01:46.995Z,1.20
2023-04-04T00:02:50.902Z,1.08
2023-04-04T00:03:53.567Z,0.93
2023-04-04T00:04:57.089Z,0.85
2023-04-04T00:05:59.466Z,1.10
2023-04-04T00:07:02.784Z,0.82
2023-04-04T00:08:05.249Z,0.82
2023-04-04T00:09:08.538Z,0.50
2023-04-04T00:10:11.223Z,0.75
2023-04-04T00:11:16.219Z,0.57
2023-04-04T00:12:18.562Z,0.65
2023-04-04T00:13:21.898Z,0.73
2023-04-04T00:14:24.240Z,0.57
2023-04-04T00:15:27.550Z,0.80
2023-04-04T00:16:29.888Z,1.10
2023-04-04T00:17:33.216Z,0.90
2023-04-04T00:18:36.202Z,0.75
2023-04-04T00:19:39.490Z,0.73
2023-04-04T00:20:42.145Z,0.95
2023-04-04T00:21:46.423Z,0.70
2023-04-04T00:22:48.717Z,0.68
2023-04-04T00:23:54.590Z,0.70
2023-04-04T00:24:57.333Z,0.63
2023-04-04T00:26:00.652Z,0.50
2023-04-04T00:27:04.342Z,0.52
2023-04-04T00:28:07.600Z,0.65
2023-04-04T00:29:09.925Z,0.90
2023-04-04T00:30:13.610Z,0.77
2023-04-04T00:31:16.175Z,0.70
2023-04-04T00:32:19.593Z,0.82
2023-04-04T00:33:21.971Z,1.05
2023-04-04T00:34:25.604Z,0.65
2023-04-04T00:35:28.119Z,1.02
2023-04-04T00:36:31.563Z,0.68
2023-04-04T00:37:34.079Z,0.68
2023-04-04T00:38:37.710Z,0.70
2023-04-04T00:39:40.236Z,0.60
2023-04-04T00:40:44.550Z,0.88
2023-04-04T00:41:49.088Z,0.80
2023-04-04T00:42:53.971Z,0.75
2023-04-04T00:43:56.708Z,0.60
2023-04-04T00:45:00.033Z,0.93
2023-04-04T00:46:02.420Z,0.63
2023-04-04T00:47:06.012Z,0.70
2023-04-04T00:48:08.419Z,0.70
2023-04-04T00:49:11.813Z,0.80
2023-04-04T00:50:14.152Z,0.50
2023-04-04T00:51:17.550Z,0.50
2023-04-04T00:52:19.842Z,0.52
2023-04-04T00:53:23.270Z,0.52
2023-04-04T00:54:25.908Z,0.70
2023-04-04T00:55:29.259Z,0.70
2023-04-04T00:56:33.175Z,0.77
2023-04-04T00:57:36.514Z,1.00
2023-04-04T00:58:40.420Z,0.73
2023-04-04T00:59:43.736Z,1.00
2023-04-04T01:00:47.212Z,1.10
2023-04-04T01:01:49.567Z,0.90
2023-04-04T01:02:52.945Z,0.68
2023-04-04T01:03:55.506Z,0.70
2023-04-04T01:04:58.815Z,0.75
2023-04-04T01:06:02.712Z,0.88
2023-04-04T01:07:06.069Z,0.55
2023-04-04T01:08:08.630Z,0.85
2023-04-04T01:09:11.993Z,0.43
2023-04-04T01:10:14.310Z,0.80
2023-04-04T01:11:18.226Z,0.70
2023-04-04T01:12:20.841Z,0.85
2023-04-04T01:13:24.268Z,0.68
2023-04-04T01:14:28.017Z,0.73
2023-04-04T01:15:31.463Z,1.13
2023-04-04T01:16:35.079Z,0.60
2023-04-04T01:17:38.668Z,0.80
2023-04-04T01:18:42.164Z,0.70
2023-04-04T01:19:48.821Z,0.70
2023-04-04T01:20:53.660Z,0.40
2023-04-04T01:21:57.494Z,0.90
2023-04-04T01:23:00.390Z,0.93
2023-04-04T01:24:04.546Z,0.70
2023-04-04T01:25:07.765Z,0.73
2023-04-04T01:26:12.408Z,0.70
2023-04-04T01:27:14.710Z,0.50
2023-04-04T01:28:17.968Z,0.63
2023-04-04T01:29:20.495Z,0.60
2023-04-04T01:30:24.760Z,0.70
2023-04-04T01:31:29.195Z,0.40
2023-04-04T01:32:35.761Z,0.52
2023-04-04T01:33:41.287Z,0.60
2023-04-04T01:34:46.468Z,0.68
2023-04-04T01:35:53.281Z,0.50
2023-04-04T01:36:59.744Z,0.63
2023-04-04T01:38:07.573Z,0.60
2023-04-04T01:39:15.530Z,1.00
2023-04-04T01:40:18.925Z,0.40
2023-04-04T01:41:24.913Z,0.50
2023-04-04T01:42:28.018Z,0.77
2023-04-04T01:43:32.558Z,0.82
2023-04-04T01:44:35.370Z,0.70
2023-04-04T01:45:38.672Z,1.45
2023-04-04T01:46:40.985Z,1.40
2023-04-04T01:47:44.755Z,1.08
2023-04-04T01:48:47.102Z,0.82
2023-04-04T01:49:50.460Z,1.10
2023-04-04T01:50:52.787Z,1.02
2023-04-04T01:51:56.274Z,1.02
2023-04-04T01:52:58.593Z,0.60
2023-04-04T01:54:01.936Z,0.75
2023-04-04T01:55:04.741Z,0.82
2023-04-04T01:56:07.137Z,1.00
2023-04-04T01:57:11.914Z,0.80
2023-04-04T01:58:14.211Z,0.93
2023-04-04T01:59:17.492Z,0.80
2023-04-04T02:00:20.128Z,0.90
2023-04-04T02:01:23.470Z,0.90
2023-04-04T02:02:25.848Z,0.70
2023-04-04T02:03:29.158Z,0.95
2023-04-04T02:04:31.487Z,1.02
2023-04-04T02:05:34.848Z,1.10
2023-04-04T02:06:37.147Z,0.70
2023-04-04T02:07:40.559Z,1.50
2023-04-04T02:08:43.334Z,0.85
2023-04-04T02:09:46.819Z,0.77
2023-04-04T02:10:49.156Z,1.00
2023-04-04T02:11:52.428Z,0.77
2023-04-04T02:12:56.217Z,0.55
2023-04-04T02:13:59.625Z,0.70
2023-04-04T02:15:01.906Z,0.70
2023-04-04T02:16:05.456Z,0.85
2023-04-04T02:17:07.870Z,0.55
2023-04-04T02:18:11.186Z,0.63
2023-04-04T02:19:13.497Z,0.40
2023-04-04T02:20:19.424Z,0.88
2023-04-04T02:21:21.943Z,0.90
2023-04-04T02:22:25.329Z,0.90
2023-04-04T02:23:27.662Z,1.00
2023-04-04T02:24:30.936Z,1.33
2023-04-04T02:25:33.247Z,0.63
2023-04-04T02:26:36.540Z,0.80
2023-04-04T02:27:38.812Z,1.25
2023-04-04T02:28:43.425Z,0.70
2023-04-04T02:29:45.698Z,0.70
2023-04-04T02:30:49.030Z,0.50
2023-04-04T02:31:51.423Z,0.90
2023-04-04T02:32:54.802Z,0.57
2023-04-04T02:33:57.638Z,0.50
2023-04-04T02:35:01.466Z,0.65
2023-04-04T02:36:04.061Z,0.77
2023-04-04T02:37:08.896Z,0.95
2023-04-04T02:38:11.232Z,0.82
2023-04-04T02:39:14.553Z,0.80
2023-04-04T02:40:16.961Z,0.68
2023-04-04T02:41:20.276Z,0.82
2023-04-04T02:42:22.685Z,0.63
2023-04-04T02:43:26.013Z,0.60
2023-04-04T02:44:29.658Z,0.60
2023-04-04T02:45:32.917Z,0.60
2023-04-04T02:46:35.443Z,0.63
2023-04-04T02:47:38.877Z,0.80
2023-04-04T02:48:41.231Z,0.63
2023-04-04T02:49:44.531Z,0.43
2023-04-04T02:50:47.518Z,0.77
2023-04-04T02:51:50.806Z,0.50
2023-04-04T02:52:54.943Z,0.50
2023-04-04T02:53:58.230Z,0.63
2023-04-04T02:55:00.594Z,0.80
2023-04-04T02:56:04.702Z,0.47
2023-04-04T02:57:06.977Z,0.30
2023-04-04T02:58:10.383Z,0.60
2023-04-04T02:59:12.728Z,0.50
2023-04-04T03:00:18.291Z,0.70
2023-04-04T03:01:20.653Z,0.43
2023-04-04T03:02:26.114Z,0.57
2023-04-04T03:03:28.713Z,0.63
2023-04-04T03:04:32.312Z,0.47
2023-04-04T03:05:34.656Z,0.52
2023-04-04T03:06:37.955Z,0.30
2023-04-04T03:07:40.369Z,0.45
2023-04-04T03:08:43.643Z,0.47
2023-04-04T03:09:46.011Z,1.00
2023-04-04T03:10:49.281Z,0.60
2023-04-04T03:11:51.723Z,0.60
2023-04-04T03:12:55.183Z,0.60
2023-04-04T03:13:57.505Z,0.57
2023-04-04T03:15:00.848Z,0.50
2023-04-04T03:16:06.422Z,0.50
2023-04-04T03:17:10.755Z,0.40
2023-04-04T03:18:13.103Z,0.55
2023-04-04T03:19:16.384Z,0.82
2023-04-04T03:20:18.803Z,0.47
2023-04-04T03:21:22.168Z,0.77
2023-04-04T03:22:24.447Z,0.45
2023-04-04T03:23:27.732Z,0.50
2023-04-04T03:24:30.021Z,0.80
2023-04-04T03:25:33.332Z,0.75
2023-04-04T03:26:35.665Z,0.70
2023-04-04T03:27:39.823Z,0.90
2023-04-04T03:28:42.257Z,0.70
2023-04-04T03:29:45.849Z,0.80
2023-04-04T03:30:48.154Z,0.60
2023-04-04T03:31:52.878Z,0.45
2023-04-04T03:32:55.336Z,0.60
2023-04-04T03:34:00.824Z,0.60
2023-04-04T03:35:03.233Z,0.43
2023-04-04T03:36:11.911Z,0.88
2023-04-04T03:37:14.340Z,0.40
2023-04-04T03:38:17.642Z,0.60
2023-04-04T03:39:20.247Z,1.05
2023-04-04T03:40:23.529Z,0.85
2023-04-04T03:41:25.820Z,0.90
2023-04-04T03:42:29.125Z,0.40
2023-04-04T03:43:31.614Z,0.40
2023-04-04T03:44:36.589Z,0.80
2023-04-04T03:45:39.266Z,0.68
2023-04-04T03:46:42.652Z,0.32
2023-04-04T03:47:46.365Z,1.00
2023-04-04T03:48:49.734Z,0.55
2023-04-04T03:49:52.719Z,0.55
2023-04-04T03:50:56.194Z,0.90
2023-04-04T03:51:59.096Z,0.90
2023-04-04T03:53:02.682Z,0.80
2023-04-04T03:54:05.070Z,0.75
2023-04-04T03:55:08.583Z,1.08
2023-04-04T03:56:10.925Z,0.75
2023-04-04T03:57:14.260Z,0.75
2023-04-04T03:58:16.600Z,0.93
2023-04-04T03:59:19.915Z,0.70
2023-04-04T04:00:22.300Z,0.82
2023-04-04T04:01:25.667Z,0.85
2023-04-04T04:02:28.146Z,1.10
2023-04-04T04:03:32.968Z,0.45
2023-04-04T04:04:35.437Z,0.47
2023-04-04T04:05:38.822Z,0.60
2023-04-04T04:06:41.243Z,0.75
2023-04-04T04:07:45.681Z,0.98
2023-04-04T04:08:48.253Z,0.90
2023-04-04T04:09:51.611Z,0.88
2023-04-04T04:10:54.568Z,0.93
2023-04-04T04:11:57.844Z,0.80
2023-04-04T04:13:00.215Z,0.50
2023-04-04T04:14:03.755Z,0.88
2023-04-04T04:15:06.506Z,1.20
2023-04-04T04:16:09.838Z,1.10
2023-04-04T04:17:12.192Z,0.93
2023-04-04T04:18:15.758Z,0.93
2023-04-04T04:19:19.429Z,0.63
2023-04-04T04:20:22.944Z,0.82
2023-04-04T04:21:25.944Z,0.90
2023-04-04T04:22:29.310Z,0.68
2023-04-04T04:23:31.771Z,0.63
2023-04-04T04:24:35.047Z,0.75
2023-04-04T04:25:37.340Z,0.80
2023-04-04T04:26:40.688Z,0.93
2023-04-04T04:27:42.987Z,0.60
2023-04-04T04:28:48.225Z,1.30
2023-04-04T04:29:50.702Z,0.70
2023-04-04T04:30:54.245Z,0.70
2023-04-04T04:31:56.589Z,0.95
2023-04-04T04:33:00.032Z,0.65
2023-04-04T04:34:03.398Z,0.95
2023-04-04T04:35:08.998Z,0.60
2023-04-04T04:36:11.551Z,0.75
2023-04-04T04:37:14.871Z,0.70
2023-04-04T04:38:17.168Z,1.10
2023-04-04T04:39:20.462Z,1.08
2023-04-04T04:40:22.789Z,0.70
2023-04-04T04:41:26.406Z,0.93
2023-04-04T04:42:29.430Z,0.60
2023-04-04T04:43:32.714Z,0.70
2023-04-04T04:44:35.011Z,1.02
2023-04-04T04:45:38.264Z,0.95
2023-04-04T04:46:40.831Z,0.90
2023-04-04T04:47:44.135Z,0.80
2023-04-04T04:48:46.762Z,0.70
2023-04-04T04:49:50.064Z,1.08
2023-04-04T04:50:53.732Z,1.10
2023-04-04T04:51:57.032Z,0.95
2023-04-04T04:52:59.321Z,0.57
2023-04-04T04:54:02.612Z,0.80
2023-04-04T04:55:05.602Z,0.77
2023-04-04T04:56:09.137Z,0.60
2023-04-04T04:57:11.529Z,1.00
2023-04-04T04:58:16.979Z,1.27
2023-04-04T04:59:20.596Z,0.55
2023-04-04T05:00:23.485Z,0.70
2023-04-04T05:01:27.425Z,0.63
2023-04-04T05:02:29.884Z,0.82
2023-04-04T05:03:33.286Z,0.60
2023-04-04T05:04:35.581Z,0.75
2023-04-04T05:05:38.884Z,0.75
2023-04-04T05:06:42.571Z,0.60
2023-04-04T05:07:47.231Z,0.93
2023-04-04T05:08:49.559Z,1.00
2023-04-04T05:09:53.080Z,0.98
2023-04-04T05:10:55.466Z,0.82
2023-04-04T05:11:58.838Z,0.80
2023-04-04T05:13:01.123Z,0.75
2023-04-04T05:14:04.463Z,0.70
2023-04-04T05:15:07.501Z,0.95
2023-04-04T05:16:10.814Z,1.00
2023-04-04T05:17:13.145Z,0.70
2023-04-04T05:18:16.473Z,0.55
2023-04-04T05:19:18.952Z,0.80
2023-04-04T05:20:23.293Z,0.60
2023-04-04T05:21:25.717Z,1.13
2023-04-04T05:22:30.500Z,1.33
2023-04-04T05:23:32.843Z,0.95
2023-04-04T05:24:36.125Z,0.95
2023-04-04T05:25:38.474Z,0.88
2023-04-04T05:26:42.243Z,0.80
2023-04-04T05:27:48.130Z,0.90
2023-04-04T05:28:51.474Z,1.20
2023-04-04T05:29:53.774Z,0.95
2023-04-04T05:30:57.513Z,0.55
2023-04-04T05:32:00.952Z,0.77
2023-04-04T05:33:04.394Z,0.77
2023-04-04T05:34:08.479Z,0.90
2023-04-04T05:35:11.838Z,0.50
2023-04-04T05:36:14.586Z,0.95
2023-04-04T05:37:18.122Z,0.85
2023-04-04T05:38:22.759Z,0.80
2023-04-04T05:39:25.117Z,1.00
2023-04-04T05:40:28.397Z,1.10
2023-04-04T05:41:30.735Z,1.10
2023-04-04T05:42:34.042Z,0.60
2023-04-04T05:43:36.559Z,0.98
2023-04-04T05:44:39.848Z,1.30
2023-04-04T05:45:42.238Z,1.27
2023-04-04T05:46:45.528Z,0.85
2023-04-04T05:47:47.885Z,1.00
2023-04-04T05:48:51.998Z,1.05
2023-04-04T05:49:54.282Z,1.25
2023-04-04T05:50:57.614Z,0.90
2023-04-04T05:51:59.987Z,0.88
2023-04-04T05:53:04.640Z,0.65
2023-04-04T05:54:08.332Z,0.68
2023-04-04T05:55:11.682Z,0.80
2023-04-04T05:56:14.052Z,0.90
2023-04-04T05:57:17.583Z,0.88
2023-04-04T05:58:19.929Z,1.45
2023-04-04T05:59:23.293Z,0.95
2023-04-04T06:00:25.657Z,0.77
2023-04-04T06:01:29.467Z,1.00
2023-04-04T06:02:32.155Z,1.08
2023-04-04T06:03:35.673Z,0.63
2023-04-04T06:04:40.239Z,1.40
2023-04-04T06:05:45.077Z,1.23
2023-04-04T06:06:47.476Z,0.90
2023-04-04T06:07:50.975Z,1.30
2023-04-04T06:08:54.306Z,1.30
2023-04-04T06:09:57.972Z,1.10
2023-04-04T06:11:01.301Z,1.38
2023-04-04T06:12:05.001Z,1.55
2023-04-04T06:13:08.294Z,1.80
2023-04-04T06:14:11.086Z,1.10
2023-04-04T06:15:14.882Z,1.20
2023-04-04T06:16:17.275Z,1.30
2023-04-04T06:17:20.657Z,1.35
2023-04-04T06:18:23.966Z,1.30
2023-04-04T06:19:26.254Z,1.15
2023-04-04T06:20:29.519Z,0.80
2023-04-04T06:21:32.848Z,1.45
2023-04-04T06:22:36.178Z,1.55
2023-04-04T06:23:38.594Z,1.08
2023-04-04T06:24:41.855Z,1.38
2023-04-04T06:25:46.584Z,1.77
2023-04-04T06:26:51.642Z,1.17
2023-04-04T06:27:55.007Z,1.65
2023-04-04T06:28:57.686Z,1.25
2023-04-04T06:30:00.973Z,1.13
2023-04-04T06:31:06.354Z,1.60
2023-04-04T06:32:09.720Z,1.40
2023-04-04T06:33:13.063Z,1.15
2023-04-04T06:34:15.449Z,1.20
2023-04-04T06:35:20.335Z,1.20
2023-04-04T06:36:22.914Z,1.00
2023-04-04T06:37:26.306Z,1.70
2023-04-04T06:38:29.424Z,1.30
2023-04-04T06:39:34.352Z,1.30
2023-04-04T06:40:37.988Z,1.85
2023-04-04T06:41:42.288Z,1.15
2023-04-04T06:42:50.475Z,1.42
2023-04-04T06:43:53.760Z,1.20
2023-04-04T06:44:57.036Z,1.13
2023-04-04T06:46:00.248Z,2.00
2023-04-04T06:47:03.587Z,1.33
2023-04-04T06:48:06.030Z,1.17
2023-04-04T06:49:09.323Z,1.10
2023-04-04T06:50:12.555Z,1.40
2023-04-04T06:51:16.067Z,1.83
2023-04-04T06:52:18.370Z,2.85
2023-04-04T06:53:23.729Z,2.67
2023-04-04T06:54:27.864Z,3.00
2023-04-04T06:55:30.165Z,3.35
2023-04-04T06:56:33.463Z,1.90
2023-04-04T06:57:38.490Z,1.40
2023-04-04T06:58:42.103Z,1.33
2023-04-04T06:59:45.280Z,1.30
2023-04-04T07:00:48.762Z,1.17
2023-04-04T07:01:51.197Z,0.85
2023-04-04T07:02:59.184Z,0.90
2023-04-04T07:04:01.720Z,1.00
2023-04-04T07:05:05.355Z,2.53
2023-04-04T07:06:07.673Z,1.50
2023-04-04T07:07:11.087Z,1.85
2023-04-04T07:08:13.623Z,1.00
2023-04-04T07:09:28.169Z,1.10
2023-04-04T07:10:32.729Z,1.00
2023-04-04T07:11:36.014Z,0.73
2023-04-04T07:12:39.696Z,0.90
2023-04-04T07:13:43.004Z,0.85
2023-04-04T07:14:45.285Z,0.90
2023-04-04T07:15:50.163Z,1.00
2023-04-04T07:16:53.833Z,1.15
2023-04-04T07:17:56.760Z,1.30
2023-04-04T07:19:00.165Z,1.27
2023-04-04T07:20:04.682Z,1.30
2023-04-04T07:21:08.217Z,1.02
2023-04-04T07:22:10.601Z,1.00
2023-04-04T07:23:13.939Z,1.20
2023-04-04T07:24:17.236Z,0.90
2023-04-04T07:25:20.540Z,1.27
2023-04-04T07:26:23.316Z,0.95
2023-04-04T07:27:27.291Z,0.73
2023-04-04T07:28:32.142Z,1.20
2023-04-04T07:29:35.776Z,0.73
2023-04-04T07:30:38.369Z,0.70
2023-04-04T07:31:41.970Z,1.00
2023-04-04T07:32:46.059Z,0.90
2023-04-04T07:33:49.645Z,1.42
2023-04-04T07:34:52.361Z,1.10
2023-04-04T07:35:55.734Z,0.80
2023-04-04T07:36:59.239Z,0.80
2023-04-04T07:38:02.952Z,1.10
2023-04-04T07:39:06.524Z,0.98
2023-04-04T07:40:10.451Z,1.00
2023-04-04T07:41:13.731Z,0.80
2023-04-04T07:42:16.264Z,0.63
2023-04-04T07:43:19.544Z,0.65
2023-04-04T07:44:24.174Z,0.77
2023-04-04T07:45:27.549Z,0.80
2023-04-04T07:46:30.830Z,0.60
2023-04-04T07:47:33.212Z,0.80
2023-04-04T07:48:36.555Z,0.70
2023-04-04T07:49:38.936Z,0.63
2023-04-04T07:50:42.274Z,0.60
2023-04-04T07:51:44.754Z,0.57
2023-04-04T07:52:51.461Z,0.90
2023-04-04T07:53:54.810Z,0.30
2023-04-04T07:55:00.316Z,1.13
2023-04-04T07:56:06.395Z,0.68
2023-04-04T07:57:09.911Z,0.70
2023-04-04T07:58:13.373Z,0.70
2023-04-04T07:59:15.838Z,0.75
2023-04-04T08:00:21.909Z,0.80
2023-04-04T08:01:25.639Z,0.55
2023-04-04T08:02:28.008Z,1.00
2023-04-04T08:03:31.807Z,1.13
2023-04-04T08:04:35.476Z,0.65
2023-04-04T08:05:38.860Z,0.88
2023-04-04T08:06:41.291Z,0.93
2023-04-04T08:07:44.657Z,0.80
2023-04-04T08:08:48.144Z,0.30
2023-04-04T08:09:50.502Z,0.57
2023-04-04T08:10:53.780Z,0.63
2023-04-04T08:11:56.331Z,0.90
2023-04-04T08:12:59.659Z,0.50
2023-04-04T08:14:01.959Z,0.60
2023-04-04T08:15:05.523Z,0.75
2023-04-04T08:16:10.329Z,0.47
2023-04-04T08:17:12.877Z,0.60
2023-04-04T08:18:16.285Z,1.10
2023-04-04T08:19:19.580Z,0.50
2023-04-04T08:20:21.859Z,0.60
2023-04-04T08:21:25.238Z,0.60
2023-04-04T08:22:28.738Z,0.85
2023-04-04T08:23:31.052Z,0.52
2023-04-04T08:24:34.766Z,0.70
2023-04-04T08:25:38.164Z,0.88
2023-04-04T08:26:43.547Z,0.52
2023-04-04T08:27:48.483Z,0.90
2023-04-04T08:28:51.351Z,0.80
2023-04-04T08:29:54.634Z,0.70
2023-04-04T08:30:57.922Z,0.80
2023-04-04T08:32:01.598Z,1.10
2023-04-04T08:33:06.331Z,0.75
2023-04-04T08:34:09.894Z,0.45
2023-04-04T08:35:12.329Z,0.47
2023-04-04T08:36:15.603Z,0.52
2023-04-04T08:37:18.246Z,0.40
2023-04-04T08:38:21.561Z,0.55
2023-04-04T08:39:24.812Z,0.60
2023-04-04T08:40:30.237Z,0.60
2023-04-04T08:41:35.821Z,0.93
2023-04-04T08:42:40.098Z,0.60
2023-04-04T08:43:46.490Z,0.85
2023-04-04T08:44:52.202Z,0.73
2023-04-04T08:45:55.080Z,0.63
2023-04-04T08:46:58.535Z,0.60
2023-04-04T08:48:05.359Z,0.70
2023-04-04T08:49:09.200Z,1.10
2023-04-04T08:50:11.718Z,0.88
2023-04-04T08:51:16.052Z,0.43
2023-04-04T08:52:20.327Z,0.80
2023-04-04T08:53:22.615Z,0.60
2023-04-04T08:54:27.830Z,0.55
2023-04-04T08:55:31.157Z,0.70
2023-04-04T08:56:35.501Z,0.65
2023-04-04T08:57:37.921Z,0.88
2023-04-04T08:58:41.371Z,0.77
2023-04-04T08:59:43.804Z,0.60
2023-04-04T09:00:47.178Z,0.95
2023-04-04T09:01:52.406Z,0.90
2023-04-04T09:02:58.985Z,1.05
2023-04-04T09:04:03.805Z,1.35
2023-04-04T09:05:08.507Z,1.40
2023-04-04T09:06:12.529Z,1.05
2023-04-04T09:07:15.886Z,0.80
2023-04-04T09:08:19.930Z,0.65
2023-04-04T09:09:23.511Z,0.68
2023-04-04T09:10:27.079Z,0.77
2023-04-04T09:11:32.843Z,0.75
2023-04-04T09:12:36.980Z,0.80
2023-04-04T09:13:41.469Z,0.85
2023-04-04T09:14:44.475Z,0.90
2023-04-04T09:15:49.141Z,1.20
2023-04-04T09:16:52.204Z,0.50
2023-04-04T09:17:55.636Z,0.60
2023-04-04T09:18:57.991Z,0.90
2023-04-04T09:20:05.097Z,0.82
2023-04-04T09:21:11.913Z,0.88
2023-04-04T09:22:18.211Z,0.82
2023-04-04T09:23:21.341Z,0.70
2023-04-04T09:24:24.635Z,0.68
2023-04-04T09:25:26.963Z,0.70
2023-04-04T09:26:30.262Z,0.93
2023-04-04T09:27:32.583Z,0.47
2023-04-04T09:28:36.043Z,0.55
2023-04-04T09:29:38.936Z,0.85
2023-04-04T09:30:42.533Z,1.08
2023-04-04T09:31:46.899Z,0.82
2023-04-04T09:32:49.557Z,1.20
2023-04-04T09:33:52.876Z,0.80
2023-04-04T09:34:56.014Z,1.17
2023-04-04T09:36:04.093Z,1.20
2023-04-04T09:37:07.838Z,1.40
2023-04-04T09:38:11.508Z,1.52
2023-04-04T09:39:16.523Z,0.82
2023-04-04T09:40:20.093Z,0.77
2023-04-04T09:41:23.436Z,0.73
2023-04-04T09:42:26.988Z,0.85
2023-04-04T09:43:33.770Z,0.57
2023-04-04T09:44:38.747Z,0.57
2023-04-04T09:45:42.237Z,1.30
2023-04-04T09:46:46.342Z,0.70
2023-04-04T09:47:49.820Z,1.10
2023-04-04T09:48:54.167Z,0.82
2023-04-04T09:49:58.635Z,0.90
2023-04-04T09:51:05.649Z,0.77
2023-04-04T09:52:19.397Z,1.02
2023-04-04T09:53:22.700Z,0.65
2023-04-04T09:54:29.677Z,0.85
2023-04-04T09:55:35.287Z,0.80
2023-04-04T09:56:39.085Z,0.90
2023-04-04T09:57:42.953Z,0.85
2023-04-04T09:59:02.499Z,0.85
2023-04-04T10:00:07.443Z,0.60
2023-04-04T10:01:11.290Z,0.80
2023-04-04T10:02:13.631Z,0.85
2023-04-04T10:03:17.854Z,0.90
2023-04-04T10:04:21.419Z,1.27
2023-04-04T10:05:24.967Z,0.80
2023-04-04T10:06:29.654Z,0.60
2023-04-04T10:07:32.527Z,0.80
2023-04-04T10:08:36.216Z,0.82
2023-04-04T10:09:38.765Z,0.95
2023-04-04T10:10:55.752Z,0.80
2023-04-04T10:12:13.381Z,1.15
2023-04-04T10:13:16.082Z,0.77
2023-04-04T10:14:19.396Z,0.95
2023-04-04T10:15:24.335Z,0.73
2023-04-04T10:16:26.855Z,0.65
2023-04-04T10:17:32.295Z,0.63
2023-04-04T10:18:36.595Z,0.77
2023-04-04T10:19:40.036Z,0.80
2023-04-04T10:20:43.296Z,0.98
2023-04-04T10:21:48.574Z,0.65
2023-04-04T10:22:51.749Z,0.85
2023-04-04T10:23:56.348Z,1.13
2023-04-04T10:24:59.141Z,0.95
2023-04-04T10:26:02.627Z,1.08
2023-04-04T10:27:05.953Z,0.60
2023-04-04T10:28:08.253Z,1.00
2023-04-04T10:29:11.925Z,0.77
2023-04-04T10:30:16.488Z,0.80
2023-04-04T10:31:23.570Z,0.70
2023-04-04T10:32:30.721Z,0.80
2023-04-04T10:33:38.196Z,1.27
2023-04-04T10:34:44.766Z,0.98
2023-04-04T10:35:48.946Z,0.70
2023-04-04T10:36:54.657Z,0.60
2023-04-04T10:38:00.001Z,0.85
2023-04-04T10:39:06.421Z,0.88
2023-04-04T10:40:10.305Z,0.65
2023-04-04T10:41:14.130Z,0.93
2023-04-04T10:42:16.823Z,1.17
2023-04-04T10:43:21.907Z,1.05
2023-04-04T10:44:29.411Z,1.17
2023-04-04T10:45:32.997Z,0.90
2023-04-04T10:46:37.808Z,1.08
2023-04-04T10:47:41.687Z,0.80
2023-04-04T10:48:45.403Z,1.00
2023-04-04T10:49:48.964Z,0.98
2023-04-04T10:50:51.373Z,0.88
2023-04-04T10:51:57.408Z,0.57
2023-04-04T10:53:02.296Z,0.82
2023-04-04T10:54:04.945Z,0.75
2023-04-04T10:55:09.992Z,1.00
2023-04-04T10:56:12.686Z,1.13
2023-04-04T10:57:16.520Z,0.55
2023-04-04T10:58:18.975Z,0.77
2023-04-04T10:59:22.772Z,0.85
2023-04-04T11:00:28.368Z,0.80
2023-04-04T11:01:45.745Z,0.52
2023-04-04T11:02:51.319Z,0.77
2023-04-04T11:04:13.489Z,0.70
2023-04-04T11:05:22.760Z,0.90
2023-04-04T11:06:41.926Z,0.90
2023-04-04T11:07:57.275Z,0.82
2023-04-04T11:09:13.154Z,0.95
2023-04-04T11:10:16.296Z,0.68
2023-04-04T11:11:22.590Z,0.85
2023-04-04T11:12:31.363Z,1.05
2023-04-04T11:13:36.643Z,1.27
2023-04-04T11:14:39.699Z,1.05
2023-04-04T11:15:55.922Z,0.82
2023-04-04T11:17:00.273Z,0.98
2023-04-04T11:18:17.944Z,0.88
2023-04-04T11:19:32.313Z,0.55
2023-04-04T11:20:36.716Z,0.82
2023-04-04T11:21:39.314Z,0.70
2023-04-04T11:22:43.870Z,0.82
2023-04-04T11:24:16.982Z,0.90
2023-04-04T11:25:37.483Z,0.90
2023-04-04T11:26:43.349Z,0.90
2023-04-04T11:27:46.562Z,0.85
2023-04-04T11:28:49.902Z,1.00
2023-04-04T11:29:53.544Z,0.68
2023-04-04T11:31:15.741Z,0.65
2023-04-04T11:32:50.147Z,2.15
2023-04-04T11:34:00.648Z,1.80
2023-04-04T11:35:05.704Z,2.33
2023-04-04T11:36:09.843Z,0.80
2023-04-04T11:37:19.127Z,0.57
2023-04-04T11:38:21.729Z,1.48
2023-04-04T11:39:30.521Z,1.20
2023-04-04T11:40:37.127Z,0.73
2023-04-04T11:41:50.179Z,0.63
2023-04-04T11:42:56.140Z,0.95
2023-04-04T11:43:59.525Z,1.00
2023-04-04T11:45:05.539Z,1.48
2023-04-04T11:46:10.247Z,0.93
2023-04-04T11:47:13.630Z,1.20
2023-04-04T11:48:18.900Z,1.33
2023-04-04T11:49:21.248Z,1.90
2023-04-04T11:50:25.521Z,2.55
2023-04-04T11:51:28.901Z,2.63
2023-04-04T11:52:35.084Z,2.20
2023-04-04T11:53:38.407Z,2.65
2023-04-04T11:54:43.823Z,1.65
2023-04-04T11:55:50.456Z,1.00
2023-04-04T11:56:52.804Z,0.75
2023-04-04T11:57:58.264Z,1.00
2023-04-04T11:59:10.768Z,1.10
2023-04-04T12:00:29.486Z,1.30
2023-04-04T12:01:32.886Z,0.80
2023-04-04T12:02:36.611Z,1.20
2023-04-04T12:03:40.503Z,1.00
2023-04-04T12:04:44.827Z,1.00
2023-04-04T12:05:48.604Z,1.33
2023-04-04T12:06:51.947Z,1.83
2023-04-04T12:07:55.285Z,1.27
2023-04-04T12:08:58.719Z,1.00
2023-04-04T12:10:02.489Z,0.80
2023-04-04T12:11:06.595Z,1.08
2023-04-04T12:12:09.949Z,1.00
2023-04-04T12:13:13.273Z,0.85
2023-04-04T12:14:20.059Z,0.93
2023-04-04T12:15:23.355Z,1.00
2023-04-04T12:16:26.681Z,0.80
2023-04-04T12:17:30.455Z,0.90
2023-04-04T12:18:33.832Z,0.90
2023-04-04T12:19:38.645Z,0.98
2023-04-04T12:20:41.535Z,1.20
2023-04-04T12:21:44.868Z,0.70
2023-04-04T12:22:50.205Z,0.65
2023-04-04T12:23:54.143Z,0.90
2023-04-04T12:24:58.944Z,0.88
2023-04-04T12:26:05.574Z,0.50
2023-04-04T12:27:08.029Z,0.73
2023-04-04T12:28:11.482Z,1.13
2023-04-04T12:29:14.391Z,0.88
2023-04-04T12:30:17.880Z,1.10
2023-04-04T12:31:21.543Z,1.10
2023-04-04T12:32:24.100Z,1.00
2023-04-04T12:33:27.440Z,0.88
2023-04-04T12:34:32.300Z,0.82
2023-04-04T12:35:36.247Z,1.40
2023-04-04T12:36:39.306Z,0.82
2023-04-04T12:37:56.459Z,0.95
2023-04-04T12:39:00.562Z,0.90
2023-04-04T12:40:03.044Z,0.88
2023-04-04T12:41:10.914Z,0.90
2023-04-04T12:42:14.357Z,0.80
2023-04-04T12:43:17.509Z,0.87
2023-04-04T12:44:29.239Z,1.00
2023-04-04T12:45:32.801Z,0.87
2023-04-04T12:46:39.749Z,0.90
2023-04-04T12:47:53.322Z,1.03
2023-04-04T12:48:57.099Z,0.97
2023-04-04T12:50:01.150Z,0.80
2023-04-04T12:51:04.873Z,0.80
2023-04-04T12:52:08.955Z,0.90
2023-04-04T12:53:27.387Z,0.80
2023-04-04T12:54:36.862Z,1.00
2023-04-04T12:55:41.212Z,1.00
2023-04-04T12:56:45.179Z,1.03
2023-04-04T12:57:48.465Z,0.80
2023-04-04T12:58:51.329Z,0.80
2023-04-04T12:59:55.860Z,0.97
2023-04-04T13:01:01.306Z,1.20
2023-04-04T13:02:05.322Z,1.10
2023-04-04T13:03:10.298Z,0.73
2023-04-04T13:04:17.652Z,0.97
2023-04-04T13:05:23.245Z,1.10
2023-04-04T13:06:30.064Z,1.10
2023-04-04T13:07:33.849Z,1.10
2023-04-04T13:08:37.228Z,1.10
2023-04-04T13:09:53.527Z,1.27
2023-04-04T13:11:04.761Z,0.80
2023-04-04T13:12:08.701Z,0.60
2023-04-04T13:13:12.822Z,0.83
2023-04-04T13:14:16.117Z,1.33
2023-04-04T13:15:18.423Z,0.80
2023-04-04T13:16:31.939Z,1.17
2023-04-04T13:17:43.694Z,0.83
2023-04-04T13:18:48.350Z,1.27
2023-04-04T13:19:50.985Z,0.97
2023-04-04T13:20:55.041Z,1.00
2023-04-04T13:21:58.380Z,1.00
2023-04-04T13:23:01.670Z,0.60
2023-04-04T13:24:05.117Z,1.00
2023-04-04T13:25:08.354Z,1.00
2023-04-04T13:26:12.566Z,0.77
2023-04-04T13:27:17.275Z,0.80
2023-04-04T13:28:19.749Z,0.97
2023-04-04T13:29:25.061Z,1.07
2023-04-04T13:30:28.076Z,1.87
2023-04-04T13:31:31.655Z,1.20
2023-04-04T13:32:34.183Z,0.90
2023-04-04T13:33:37.808Z,0.93
2023-04-04T13:34:41.193Z,0.80
2023-04-04T13:35:45.311Z,1.00
2023-04-04T13:36:48.593Z,0.80
2023-04-04T13:37:50.898Z,1.13
2023-04-04T13:38:54.198Z,0.90
2023-04-04T13:39:56.528Z,1.00
2023-04-04T13:41:00.599Z,1.20
2023-04-04T13:42:03.967Z,1.30
2023-04-04T13:43:08.834Z,1.00
2023-04-04T13:44:12.152Z,1.03
2023-04-04T13:45:15.470Z,1.00
2023-04-04T13:46:18.804Z,1.10
2023-04-04T13:47:22.746Z,0.90
2023-04-04T13:48:26.414Z,1.20
2023-04-04T13:49:28.757Z,0.80
2023-04-04T13:50:32.996Z,0.87
2023-04-04T13:51:36.294Z,1.47
2023-04-04T13:52:38.601Z,0.90
2023-04-04T13:53:42.042Z,1.20
2023-04-04T13:54:44.588Z,1.30
2023-04-04T13:56:02.174Z,0.90
2023-04-04T13:57:11.419Z,1.00
2023-04-04T13:58:19.983Z,1.03
2023-04-04T13:59:23.290Z,0.83
2023-04-04T14:00:25.778Z,0.90
2023-04-04T14:01:29.203Z,1.00
2023-04-04T14:02:32.735Z,1.10
2023-04-04T14:03:36.143Z,2.30
2023-04-04T14:04:38.621Z,2.97
2023-04-04T14:05:42.199Z,5.63
2023-04-04T14:06:47.150Z,5.37
2023-04-04T14:07:49.568Z,2.97
2023-04-04T14:08:52.872Z,1.73
2023-04-04T14:09:55.238Z,2.07
2023-04-04T14:10:58.672Z,1.97
2023-04-04T14:12:01.575Z,1.20
2023-04-04T14:13:04.898Z,1.20
2023-04-04T14:14:09.515Z,1.20